sensor_id;sensor_type;location;lat;lon;timestamp;pressure;altitude;pressure_sealevel;temperature;humidity
37856;BME280;23694;43.274;26.924;2023-02-15T00:01:58;100109.41;;;2.88;80.83
37856;BME280;23694;43.274;26.924;2023-02-15T00:04:24;100107.66;;;2.90;80.48
37856;BME280;23694;43.274;26.924;2023-02-15T00:07:12;100109.47;;;2.84;80.11
37856;BME280;23694;43.274;26.924;2023-02-15T00:09:38;100107.56;;;2.94;79.70
37856;BME280;23694;43.274;26.924;2023-02-15T00:12:04;100110.16;;;2.94;79.27
37856;BME280;23694;43.274;26.924;2023-02-15T00:14:30;100103.25;;;2.95;79.31
37856;BME280;23694;43.274;26.924;2023-02-15T00:16:56;100108.22;;;3.05;78.18
37856;BME280;23694;43.274;26.924;2023-02-15T00:19:25;100111.81;;;2.97;78.58
37856;BME280;23694;43.274;26.924;2023-02-15T00:21:51;100106.56;;;3.01;78.14
37856;BME280;23694;43.274;26.924;2023-02-15T00:24:18;100107.41;;;3.02;78.19
37856;BME280;23694;43.274;26.924;2023-02-15T00:26:46;100108.34;;;2.98;78.27
37856;BME280;23694;43.274;26.924;2023-02-15T00:29:13;100108.19;;;3.07;77.70
37856;BME280;23694;43.274;26.924;2023-02-15T00:31:40;100115.91;;;3.08;77.78
37856;BME280;23694;43.274;26.924;2023-02-15T00:34:20;100116.00;;;3.04;77.44
37856;BME280;23694;43.274;26.924;2023-02-15T00:36:47;100118.34;;;3.16;nan
37856;BME280;23694;43.274;26.924;2023-02-15T00:39:14;100115.66;;;3.21;76.53
37856;BME280;23694;43.274;26.924;2023-02-15T00:41:41;100117.31;;;3.26;76.26
37856;BME280;23694;43.274;26.924;2023-02-15T00:44:07;100095.94;;;3.15;76.46
37856;BME280;23694;43.274;26.924;2023-02-15T00:46:34;100106.09;;;3.24;76.22
37856;BME280;23694;43.274;26.924;2023-02-15T00:49:01;100100.88;;;3.29;76.24
37856;BME280;23694;43.274;26.924;2023-02-15T00:51:27;100093.97;;;3.28;75.80
37856;BME280;23694;43.274;26.924;2023-02-15T00:53:54;100108.63;;;3.29;75.90
37856;BME280;23694;43.274;26.924;2023-02-15T00:56:20;100101.94;;;3.17;76.37
37856;BME280;23694;43.274;26.924;2023-02-15T00:58:46;100107.03;;;3.22;76.38
37856;BME280;23694;43.274;26.924;2023-02-15T01:01:18;100114.84;;;3.18;76.66
37856;BME280;23694;43.274;26.924;2023-02-15T01:03:44;100126.22;;;3.11;76.60
37856;BME280;23694;43.274;26.924;2023-02-15T01:06:13;100120.53;;;2.93;77.89
37856;BME280;23694;43.274;26.924;2023-02-15T01:08:40;100124.16;;;2.84;78.26
37856;BME280;23694;43.274;26.924;2023-02-15T01:11:09;100103.53;;;2.79;78.24
37856;BME280;23694;43.274;26.924;2023-02-15T01:13:35;100120.69;;;2.83;78.28
37856;BME280;23694;43.274;26.924;2023-02-15T01:16:02;100115.63;;;2.77;78.17
37856;BME280;23694;43.274;26.924;2023-02-15T01:18:29;100120.81;;;2.77;78.49
37856;BME280;23694;43.274;26.924;2023-02-15T01:20:56;100115.03;;;2.63;78.80
37856;BME280;23694;43.274;26.924;2023-02-15T01:23:22;100115.94;;;2.59;78.47
37856;BME280;23694;43.274;26.924;2023-02-15T01:25:48;100118.03;;;2.37;79.93
37856;BME280;23694;43.274;26.924;2023-02-15T01:28:14;100118.53;;;2.61;78.82
37856;BME280;23694;43.274;26.924;2023-02-15T01:30:40;100116.00;;;2.54;78.28
37856;BME280;23694;43.274;26.924;2023-02-15T01:33:06;100109.88;;;2.62;78.24
37856;BME280;23694;43.274;26.924;2023-02-15T01:35:36;100109.16;;;2.52;78.71
37856;BME280;23694;43.274;26.924;2023-02-15T01:38:02;100110.19;;;2.42;78.49
37856;BME280;23694;43.274;26.924;2023-02-15T01:40:28;100117.03;;;2.46;78.71
37856;BME280;23694;43.274;26.924;2023-02-15T01:42:55;100122.16;;;2.49;78.42
37856;BME280;23694;43.274;26.924;2023-02-15T01:48:00;100112.44;;;2.63;78.37
37856;BME280;23694;43.274;26.924;2023-02-15T01:50:33;100121.91;;;2.64;77.71
37856;BME280;23694;43.274;26.924;2023-02-15T01:58:43;100119.94;;;2.78;77.11
37856;BME280;23694;43.274;26.924;2023-02-15T02:01:09;100112.06;;;2.84;76.39
37856;BME280;23694;43.274;26.924;2023-02-15T02:03:41;100109.34;;;2.91;76.19
37856;BME280;23694;43.274;26.924;2023-02-15T02:06:10;100108.44;;;2.93;76.21
37856;BME280;23694;43.274;26.924;2023-02-15T02:08:38;100117.09;;;2.92;75.84
37856;BME280;23694;43.274;26.924;2023-02-15T02:11:10;100108.41;;;2.95;75.64
37856;BME280;23694;43.274;26.924;2023-02-15T02:13:36;100113.38;;;3.05;74.96
37856;BME280;23694;43.274;26.924;2023-02-15T02:38:06;100112.53;;;3.05;72.02
37856;BME280;23694;43.274;26.924;2023-02-15T02:43:45;100125.00;;;2.84;71.97
37856;BME280;23694;43.274;26.924;2023-02-15T02:46:33;100126.72;;;2.84;72.04
37856;BME280;23694;43.274;26.924;2023-02-15T02:49:01;100125.31;;;2.68;71.36
37856;BME280;23694;43.274;26.924;2023-02-15T02:51:28;100122.78;;;2.65;72.00
37856;BME280;23694;43.274;26.924;2023-02-15T02:53:56;100120.16;;;2.66;71.64
37856;BME280;23694;43.274;26.924;2023-02-15T02:56:29;100128.00;;;2.59;71.04
37856;BME280;23694;43.274;26.924;2023-02-15T02:59:04;100132.16;;;2.70;71.27
37856;BME280;23694;43.274;26.924;2023-02-15T03:01:48;100130.50;;;2.66;71.45
37856;BME280;23694;43.274;26.924;2023-02-15T03:04:21;100127.00;;;2.69;71.05
37856;BME280;23694;43.274;26.924;2023-02-15T03:09:26;100122.69;;;2.69;70.80
37856;BME280;23694;43.274;26.924;2023-02-15T03:12:00;100126.03;;;2.76;70.71
37856;BME280;23694;43.274;26.924;2023-02-15T03:14:29;100125.94;;;2.80;70.52
37856;BME280;23694;43.274;26.924;2023-02-15T03:16:56;100119.06;;;2.78;70.56
37856;BME280;23694;43.274;26.924;2023-02-15T03:19:25;100118.44;;;2.65;71.10
37856;BME280;23694;43.274;26.924;2023-02-15T03:22:20;100119.28;;;2.67;70.61
37856;BME280;23694;43.274;26.924;2023-02-15T03:25:06;100121.09;;;2.59;70.50
37856;BME280;23694;43.274;26.924;2023-02-15T03:27:45;100128.91;;;2.58;70.48
37856;BME280;23694;43.274;26.924;2023-02-15T03:30:12;100123.00;;;2.49;70.26
37856;BME280;23694;43.274;26.924;2023-02-15T03:32:41;100131.75;;;2.42;70.68
37856;BME280;23694;43.274;26.924;2023-02-15T03:35:08;100126.59;;;2.41;70.53
37856;BME280;23694;43.274;26.924;2023-02-15T03:37:41;100143.75;;;2.45;70.71
37856;BME280;23694;43.274;26.924;2023-02-15T03:40:29;100143.16;;;2.29;70.52
37856;BME280;23694;43.274;26.924;2023-02-15T03:46:20;100140.06;;;2.06;71.40
37856;BME280;23694;43.274;26.924;2023-02-15T03:48:53;100145.16;;;2.12;71.75
37856;BME280;23694;43.274;26.924;2023-02-15T03:51:28;100149.50;;;2.08;71.11
37856;BME280;23694;43.274;26.924;2023-02-15T03:54:07;100148.84;;;1.96;71.35
37856;BME280;23694;43.274;26.924;2023-02-15T03:56:37;100157.44;;;1.96;70.97
37856;BME280;23694;43.274;26.924;2023-02-15T03:59:04;100159.06;;;2.03;70.62
37856;BME280;23694;43.274;26.924;2023-02-15T04:02:20;100158.22;;;2.03;70.67
37856;BME280;23694;43.274;26.924;2023-02-15T04:04:48;100160.78;;;2.03;70.37
37856;BME280;23694;43.274;26.924;2023-02-15T04:07:14;100151.38;;;1.99;70.23
37856;BME280;23694;43.274;26.924;2023-02-15T04:09:40;100159.91;;;2.04;70.50
37856;BME280;23694;43.274;26.924;2023-02-15T04:12:25;100163.34;;;2.04;69.89
37856;BME280;23694;43.274;26.924;2023-02-15T04:14:51;100174.47;;;2.09;70.58
37856;BME280;23694;43.274;26.924;2023-02-15T04:17:37;100168.47;;;2.09;71.30
37856;BME280;23694;43.274;26.924;2023-02-15T04:20:03;100169.25;;;2.14;70.81
37856;BME280;23694;43.274;26.924;2023-02-15T04:22:48;100173.66;;;2.07;69.98
37856;BME280;23694;43.274;26.924;2023-02-15T04:25:32;100177.94;;;2.08;70.07
37856;BME280;23694;43.274;26.924;2023-02-15T04:27:58;100166.84;;;2.00;70.03
37856;BME280;23694;43.274;26.924;2023-02-15T04:30:25;100174.53;;;2.06;70.34
37856;BME280;23694;43.274;26.924;2023-02-15T04:32:53;100182.28;;;2.06;69.63
37856;BME280;23694;43.274;26.924;2023-02-15T04:35:19;100183.09;;;2.10;69.78
37856;BME280;23694;43.274;26.924;2023-02-15T04:37:45;100185.00;;;1.97;70.10
37856;BME280;23694;43.274;26.924;2023-02-15T04:40:13;100193.53;;;2.02;70.33
37856;BME280;23694;43.274;26.924;2023-02-15T04:42:40;100194.41;;;2.01;70.33
37856;BME280;23694;43.274;26.924;2023-02-15T04:45:07;100189.25;;;2.00;70.26
37856;BME280;23694;43.274;26.924;2023-02-15T04:47:33;100189.31;;;1.94;70.16
37856;BME280;23694;43.274;26.924;2023-02-15T04:49:59;100195.31;;;1.97;69.86
37856;BME280;23694;43.274;26.924;2023-02-15T04:52:25;100191.88;;;1.97;70.34
37856;BME280;23694;43.274;26.924;2023-02-15T04:54:51;100200.50;;;1.97;69.68
37856;BME280;23694;43.274;26.924;2023-02-15T04:57:17;100193.06;;;1.71;70.97
37856;BME280;23694;43.274;26.924;2023-02-15T04:59:43;100206.56;;;1.91;70.54
37856;BME280;23694;43.274;26.924;2023-02-15T05:02:09;100199.66;;;1.94;70.47
37856;BME280;23694;43.274;26.924;2023-02-15T05:04:35;100208.22;;;1.99;70.29
37856;BME280;23694;43.274;26.924;2023-02-15T05:07:01;100203.91;;;1.99;70.01
37856;BME280;23694;43.274;26.924;2023-02-15T05:09:27;100208.41;;;1.82;70.30
37856;BME280;23694;43.274;26.924;2023-02-15T05:11:53;100208.50;;;1.76;70.75
37856;BME280;23694;43.274;26.924;2023-02-15T05:14:20;100214.41;;;1.84;70.56
37856;BME280;23694;43.274;26.924;2023-02-15T05:16:46;100221.34;;;1.80;70.33
37856;BME280;23694;43.274;26.924;2023-02-15T05:19:12;100225.59;;;1.86;70.27
37856;BME280;23694;43.274;26.924;2023-02-15T05:21:38;100231.69;;;1.80;70.21
37856;BME280;23694;43.274;26.924;2023-02-15T05:24:04;100238.34;;;2.01;69.50
37856;BME280;23694;43.274;26.924;2023-02-15T05:26:50;100236.31;;;2.23;68.55
37856;BME280;23694;43.274;26.924;2023-02-15T05:29:35;100236.13;;;2.35;67.37
37856;BME280;23694;43.274;26.924;2023-02-15T05:32:01;100243.75;;;2.46;67.73
37856;BME280;23694;43.274;26.924;2023-02-15T05:34:28;100243.47;;;3.16;65.31
37856;BME280;23694;43.274;26.924;2023-02-15T05:36:54;100253.78;;;4.10;61.85
37856;BME280;23694;43.274;26.924;2023-02-15T05:39:20;100251.75;;;4.99;57.67
37856;BME280;23694;43.274;26.924;2023-02-15T05:41:46;100236.28;;;5.61;54.76
37856;BME280;23694;43.274;26.924;2023-02-15T05:44:12;100247.00;;;6.12;52.91
37856;BME280;23694;43.274;26.924;2023-02-15T05:46:38;100244.31;;;6.73;50.79
37856;BME280;23694;43.274;26.924;2023-02-15T05:49:04;100243.22;;;7.56;47.76
37856;BME280;23694;43.274;26.924;2023-02-15T05:51:30;100252.41;;;8.14;45.91
37856;BME280;23694;43.274;26.924;2023-02-15T05:53:56;100258.22;;;7.99;44.73
37856;BME280;23694;43.274;26.924;2023-02-15T05:56:22;100258.31;;;6.95;48.21
37856;BME280;23694;43.274;26.924;2023-02-15T05:58:48;100262.63;;;6.70;48.68
37856;BME280;23694;43.274;26.924;2023-02-15T06:01:16;100254.19;;;6.61;49.49
37856;BME280;23694;43.274;26.924;2023-02-15T06:03:43;100263.03;;;6.28;49.92
37856;BME280;23694;43.274;26.924;2023-02-15T06:06:09;100267.03;;;6.38;50.07
37856;BME280;23694;43.274;26.924;2023-02-15T06:08:36;100267.22;;;6.61;50.24
37856;BME280;23694;43.274;26.924;2023-02-15T06:11:03;100268.53;;;7.01;48.24
37856;BME280;23694;43.274;26.924;2023-02-15T06:13:30;100262.13;;;7.38;47.45
37856;BME280;23694;43.274;26.924;2023-02-15T06:15:56;100264.47;;;7.45;46.86
37856;BME280;23694;43.274;26.924;2023-02-15T06:18:22;100268.81;;;7.20;47.14
37856;BME280;23694;43.274;26.924;2023-02-15T06:20:49;100267.81;;;7.74;46.66
37856;BME280;23694;43.274;26.924;2023-02-15T06:23:15;100269.97;;;8.34;45.19
37856;BME280;23694;43.274;26.924;2023-02-15T06:25:41;100271.97;;;8.73;43.71
37856;BME280;23694;43.274;26.924;2023-02-15T06:28:07;100279.19;;;8.88;43.21
37856;BME280;23694;43.274;26.924;2023-02-15T06:30:33;100267.78;;;9.33;41.73
37856;BME280;23694;43.274;26.924;2023-02-15T06:33:00;100272.81;;;9.58;41.30
37856;BME280;23694;43.274;26.924;2023-02-15T06:35:26;100275.09;;;10.98;39.06
37856;BME280;23694;43.274;26.924;2023-02-15T06:37:52;100268.81;;;11.20;37.90
37856;BME280;23694;43.274;26.924;2023-02-15T06:40:18;100289.94;;;12.83;35.13
37856;BME280;23694;43.274;26.924;2023-02-15T06:42:45;100275.84;;;14.33;32.37
37856;BME280;23694;43.274;26.924;2023-02-15T06:45:17;100278.53;;;14.17;31.85
37856;BME280;23694;43.274;26.924;2023-02-15T06:47:43;100276.41;;;15.33;30.43
37856;BME280;23694;43.274;26.924;2023-02-15T06:50:10;100285.38;;;15.82;29.28
37856;BME280;23694;43.274;26.924;2023-02-15T06:52:39;100276.50;;;16.09;28.61
37856;BME280;23694;43.274;26.924;2023-02-15T06:55:06;100280.28;;;17.27;27.54
37856;BME280;23694;43.274;26.924;2023-02-15T06:57:32;100281.09;;;18.20;26.13
37856;BME280;23694;43.274;26.924;2023-02-15T07:00:02;100287.00;;;18.01;25.90
37856;BME280;23694;43.274;26.924;2023-02-15T07:02:30;100287.22;;;16.93;27.61
37856;BME280;23694;43.274;26.924;2023-02-15T07:04:57;100293.50;;;13.74;31.16
37856;BME280;23694;43.274;26.924;2023-02-15T07:07:23;100294.66;;;12.92;33.05
37856;BME280;23694;43.274;26.924;2023-02-15T07:09:49;100293.78;;;12.29;34.23
37856;BME280;23694;43.274;26.924;2023-02-15T07:12:15;100289.16;;;10.78;37.14
37856;BME280;23694;43.274;26.924;2023-02-15T07:14:59;100292.72;;;10.40;38.43
37856;BME280;23694;43.274;26.924;2023-02-15T07:17:25;100293.28;;;10.28;38.85
37856;BME280;23694;43.274;26.924;2023-02-15T07:19:54;100288.34;;;10.01;39.63
37856;BME280;23694;43.274;26.924;2023-02-15T07:22:20;100284.78;;;9.83;39.28
37856;BME280;23694;43.274;26.924;2023-02-15T07:24:46;100297.06;;;9.61;40.52
37856;BME280;23694;43.274;26.924;2023-02-15T07:27:15;100295.41;;;9.18;41.44
37856;BME280;23694;43.274;26.924;2023-02-15T07:29:41;100305.25;;;8.89;41.86
37856;BME280;23694;43.274;26.924;2023-02-15T07:32:07;100299.28;;;9.08;41.97
37856;BME280;23694;43.274;26.924;2023-02-15T07:34:33;100303.50;;;9.12;42.29
37856;BME280;23694;43.274;26.924;2023-02-15T07:36:59;100302.81;;;9.07;43.25
37856;BME280;23694;43.274;26.924;2023-02-15T07:39:25;100300.97;;;9.31;42.00
37856;BME280;23694;43.274;26.924;2023-02-15T07:41:51;100296.28;;;9.39;42.00
37856;BME280;23694;43.274;26.924;2023-02-15T07:44:17;100305.94;;;9.16;42.87
37856;BME280;23694;43.274;26.924;2023-02-15T07:46:44;100295.63;;;9.54;42.53
37856;BME280;23694;43.274;26.924;2023-02-15T07:49:14;100297.97;;;9.60;40.93
37856;BME280;23694;43.274;26.924;2023-02-15T07:51:43;100297.38;;;9.74;40.81
37856;BME280;23694;43.274;26.924;2023-02-15T07:54:18;100293.00;;;9.54;41.41
37856;BME280;23694;43.274;26.924;2023-02-15T07:56:44;100295.69;;;9.52;41.82
37856;BME280;23694;43.274;26.924;2023-02-15T07:59:10;100294.44;;;9.41;41.98
37856;BME280;23694;43.274;26.924;2023-02-15T08:01:38;100297.28;;;9.77;40.50
37856;BME280;23694;43.274;26.924;2023-02-15T08:04:08;100298.50;;;9.89;40.26
37856;BME280;23694;43.274;26.924;2023-02-15T08:06:40;100297.91;;;9.62;40.91
37856;BME280;23694;43.274;26.924;2023-02-15T08:09:08;100303.78;;;9.04;41.76
37856;BME280;23694;43.274;26.924;2023-02-15T08:11:38;100302.94;;;9.26;41.96
37856;BME280;23694;43.274;26.924;2023-02-15T08:21:50;100294.72;;;9.55;41.00
37856;BME280;23694;43.274;26.924;2023-02-15T08:24:19;100293.97;;;9.72;40.65
37856;BME280;23694;43.274;26.924;2023-02-15T08:26:46;100293.28;;;9.48;41.07
37856;BME280;23694;43.274;26.924;2023-02-15T08:29:14;100298.50;;;9.48;41.28
37856;BME280;23694;43.274;26.924;2023-02-15T08:31:41;100297.53;;;9.91;40.49
37856;BME280;23694;43.274;26.924;2023-02-15T08:34:09;100292.94;;;9.96;40.36
37856;BME280;23694;43.274;26.924;2023-02-15T08:36:37;100298.81;;;9.40;41.98
37856;BME280;23694;43.274;26.924;2023-02-15T08:39:04;100309.81;;;9.06;41.79
37856;BME280;23694;43.274;26.924;2023-02-15T08:41:51;100303.97;;;9.00;42.52
37856;BME280;23694;43.274;26.924;2023-02-15T08:44:19;100310.66;;;9.07;42.45
37856;BME280;23694;43.274;26.924;2023-02-15T08:46:47;100315.09;;;8.83;43.32
37856;BME280;23694;43.274;26.924;2023-02-15T08:49:23;100302.81;;;8.63;42.96
37856;BME280;23694;43.274;26.924;2023-02-15T08:51:49;100304.94;;;8.75;42.66
37856;BME280;23694;43.274;26.924;2023-02-15T08:54:18;100304.63;;;9.05;42.42
37856;BME280;23694;43.274;26.924;2023-02-15T08:56:45;100310.53;;;8.88;43.38
37856;BME280;23694;43.274;26.924;2023-02-15T08:59:19;100313.22;;;8.86;43.00
37856;BME280;23694;43.274;26.924;2023-02-15T09:01:46;100314.13;;;8.40;44.55
37856;BME280;23694;43.274;26.924;2023-02-15T09:04:12;100308.56;;;8.49;44.03
37856;BME280;23694;43.274;26.924;2023-02-15T09:06:40;100306.72;;;8.28;44.37
37856;BME280;23694;43.274;26.924;2023-02-15T09:09:07;100312.47;;;8.38;44.95
37856;BME280;23694;43.274;26.924;2023-02-15T09:11:35;100316.28;;;8.52;43.99
37856;BME280;23694;43.274;26.924;2023-02-15T09:14:05;100313.44;;;8.58;43.69
37856;BME280;23694;43.274;26.924;2023-02-15T09:16:34;100303.97;;;8.56;44.06
37856;BME280;23694;43.274;26.924;2023-02-15T09:19:01;100303.38;;;8.71;43.89
37856;BME280;23694;43.274;26.924;2023-02-15T09:21:28;100306.94;;;8.69;44.49
37856;BME280;23694;43.274;26.924;2023-02-15T09:23:59;100300.63;;;8.96;43.78
37856;BME280;23694;43.274;26.924;2023-02-15T09:26:27;100300.06;;;9.32;43.16
37856;BME280;23694;43.274;26.924;2023-02-15T09:28:56;100291.44;;;9.50;42.28
37856;BME280;23694;43.274;26.924;2023-02-15T09:31:30;100299.22;;;9.31;42.89
37856;BME280;23694;43.274;26.924;2023-02-15T09:33:58;100286.88;;;9.55;42.12
37856;BME280;23694;43.274;26.924;2023-02-15T09:36:32;100289.47;;;9.96;41.80
37856;BME280;23694;43.274;26.924;2023-02-15T09:47:47;100291.22;;;8.92;43.22
37856;BME280;23694;43.274;26.924;2023-02-15T09:56:05;100276.13;;;9.20;42.50
37856;BME280;23694;43.274;26.924;2023-02-15T10:13:33;100248.59;;;9.73;41.73
37856;BME280;23694;43.274;26.924;2023-02-15T10:27:31;100230.16;;;10.53;38.74
37856;BME280;23694;43.274;26.924;2023-02-15T10:30:11;100225.09;;;10.67;38.75
37856;BME280;23694;43.274;26.924;2023-02-15T10:33:00;100230.13;;;10.15;39.73
37856;BME280;23694;43.274;26.924;2023-02-15T10:38:15;100222.16;;;10.37;40.53
37856;BME280;23694;43.274;26.924;2023-02-15T11:06:13;100215.00;;;9.64;40.61
37856;BME280;23694;43.274;26.924;2023-02-15T11:08:45;100209.34;;;9.73;40.74
37856;BME280;23694;43.274;26.924;2023-02-15T11:11:34;100200.97;;;10.04;39.72
37856;BME280;23694;43.274;26.924;2023-02-15T11:14:13;100203.88;;;9.98;40.12
37856;BME280;23694;43.274;26.924;2023-02-15T11:16:45;100203.94;;;9.96;40.19
37856;BME280;23694;43.274;26.924;2023-02-15T11:19:19;100187.06;;;9.64;40.67
37856;BME280;23694;43.274;26.924;2023-02-15T11:21:53;100191.44;;;9.84;40.42
37856;BME280;23694;43.274;26.924;2023-02-15T11:24:21;100193.91;;;9.87;40.65
37856;BME280;23694;43.274;26.924;2023-02-15T11:26:56;100187.25;;;9.99;40.49
37856;BME280;23694;43.274;26.924;2023-02-15T11:31:59;100193.75;;;9.90;40.88
37856;BME280;23694;43.274;26.924;2023-02-15T11:34:31;100189.88;;;9.80;41.29
37856;BME280;23694;43.274;26.924;2023-02-15T11:37:05;100188.09;;;9.80;40.76
37856;BME280;23694;43.274;26.924;2023-02-15T11:39:33;100189.25;;;9.73;41.80
37856;BME280;23694;43.274;26.924;2023-02-15T11:42:13;100175.44;;;9.12;42.44
37856;BME280;23694;43.274;26.924;2023-02-15T11:47:23;100173.25;;;9.81;41.71
37856;BME280;23694;43.274;26.924;2023-02-15T11:49:49;100170.69;;;9.79;41.30
37856;BME280;23694;43.274;26.924;2023-02-15T11:52:17;100176.16;;;9.94;40.73
37856;BME280;23694;43.274;26.924;2023-02-15T11:54:47;100172.38;;;10.18;40.12
37856;BME280;23694;43.274;26.924;2023-02-15T11:57:37;100168.50;;;10.45;40.10
37856;BME280;23694;43.274;26.924;2023-02-15T12:00:20;100158.97;;;10.62;39.21
37856;BME280;23694;43.274;26.924;2023-02-15T12:02:52;100162.69;;;10.39;40.54
37856;BME280;23694;43.274;26.924;2023-02-15T12:05:21;100167.06;;;10.20;40.58
37856;BME280;23694;43.274;26.924;2023-02-15T12:10:24;100160.19;;;10.55;39.05
37856;BME280;23694;43.274;26.924;2023-02-15T12:13:13;100155.06;;;10.15;40.35
37856;BME280;23694;43.274;26.924;2023-02-15T12:15:42;100159.38;;;9.79;41.13
37856;BME280;23694;43.274;26.924;2023-02-15T12:21:05;100147.03;;;9.43;42.24
37856;BME280;23694;43.274;26.924;2023-02-15T12:23:32;100158.09;;;9.30;42.76
37856;BME280;23694;43.274;26.924;2023-02-15T12:25:59;100153.47;;;9.16;43.23
37856;BME280;23694;43.274;26.924;2023-02-15T12:28:35;100154.09;;;9.41;42.17
37856;BME280;23694;43.274;26.924;2023-02-15T12:31:06;100152.72;;;9.33;42.45
37856;BME280;23694;43.274;26.924;2023-02-15T12:33:34;100148.97;;;9.19;41.80
37856;BME280;23694;43.274;26.924;2023-02-15T12:36:29;100149.41;;;8.88;43.06
37856;BME280;23694;43.274;26.924;2023-02-15T12:42:15;100137.75;;;9.75;40.41
37856;BME280;23694;43.274;26.924;2023-02-15T12:45:03;100130.72;;;9.95;40.55
37856;BME280;23694;43.274;26.924;2023-02-15T12:47:30;100141.06;;;9.79;41.23
37856;BME280;23694;43.274;26.924;2023-02-15T12:50:11;100137.31;;;9.84;41.33
37856;BME280;23694;43.274;26.924;2023-02-15T12:52:47;100141.84;;;10.00;40.42
37856;BME280;23694;43.274;26.924;2023-02-15T12:55:25;100142.38;;;9.69;41.31
37856;BME280;23694;43.274;26.924;2023-02-15T12:58:18;100139.13;;;9.64;41.21
37856;BME280;23694;43.274;26.924;2023-02-15T13:00:45;100141.78;;;9.43;41.54
37856;BME280;23694;43.274;26.924;2023-02-15T13:03:20;100148.72;;;9.44;41.31
37856;BME280;23694;43.274;26.924;2023-02-15T13:05:57;100140.81;;;9.46;41.56
37856;BME280;23694;43.274;26.924;2023-02-15T13:08:27;100141.72;;;9.45;41.55
37856;BME280;23694;43.274;26.924;2023-02-15T13:11:04;100136.09;;;9.15;41.98
37856;BME280;23694;43.274;26.924;2023-02-15T13:13:33;100139.72;;;8.90;42.76
37856;BME280;23694;43.274;26.924;2023-02-15T13:16:11;100146.19;;;9.02;43.19
37856;BME280;23694;43.274;26.924;2023-02-15T13:18:43;100141.50;;;8.90;43.80
37856;BME280;23694;43.274;26.924;2023-02-15T13:21:25;100147.25;;;8.98;43.97
37856;BME280;23694;43.274;26.924;2023-02-15T13:23:59;100136.25;;;8.90;42.95
37856;BME280;23694;43.274;26.924;2023-02-15T13:26:29;100140.84;;;8.85;43.10
37856;BME280;23694;43.274;26.924;2023-02-15T13:28:59;100134.44;;;8.92;42.56
37856;BME280;23694;43.274;26.924;2023-02-15T13:31:31;100141.16;;;8.77;42.69
37856;BME280;23694;43.274;26.924;2023-02-15T13:34:11;100130.78;;;8.76;43.37
37856;BME280;23694;43.274;26.924;2023-02-15T13:39:55;100146.75;;;8.48;44.58
37856;BME280;23694;43.274;26.924;2023-02-15T13:42:41;100140.47;;;8.52;44.44
37856;BME280;23694;43.274;26.924;2023-02-15T13:48:11;100139.47;;;8.33;43.66
37856;BME280;23694;43.274;26.924;2023-02-15T14:01:49;100136.56;;;8.18;44.39
37856;BME280;23694;43.274;26.924;2023-02-15T14:04:58;100138.88;;;8.26;43.53
37856;BME280;23694;43.274;26.924;2023-02-15T14:10:15;100131.94;;;8.48;42.99
37856;BME280;23694;43.274;26.924;2023-02-15T14:13:17;100131.00;;;8.49;42.07
37856;BME280;23694;43.274;26.924;2023-02-15T14:18:39;100146.09;;;8.41;41.74
37856;BME280;23694;43.274;26.924;2023-02-15T14:24:02;100145.25;;;8.41;41.32
37856;BME280;23694;43.274;26.924;2023-02-15T14:32:33;100149.50;;;8.43;41.63
37856;BME280;23694;43.274;26.924;2023-02-15T14:35:03;100137.44;;;8.41;41.39
37856;BME280;23694;43.274;26.924;2023-02-15T14:40:17;100146.88;;;8.21;42.22
37856;BME280;23694;43.274;26.924;2023-02-15T14:48:49;100140.22;;;8.36;41.98
37856;BME280;23694;43.274;26.924;2023-02-15T14:59:35;100141.41;;;8.06;42.57
37856;BME280;23694;43.274;26.924;2023-02-15T15:07:27;100155.97;;;7.89;43.67
37856;BME280;23694;43.274;26.924;2023-02-15T15:12:51;100146.06;;;7.74;44.26
37856;BME280;23694;43.274;26.924;2023-02-15T15:18:03;100147.28;;;7.89;42.61
37856;BME280;23694;43.274;26.924;2023-02-15T15:20:47;100140.50;;;7.85;42.26
37856;BME280;23694;43.274;26.924;2023-02-15T15:25:48;100144.22;;;7.54;43.13
37856;BME280;23694;43.274;26.924;2023-02-15T15:50:15;100147.91;;;6.99;45.99
37856;BME280;23694;43.274;26.924;2023-02-15T15:52:58;100153.44;;;6.90;46.55
37856;BME280;23694;43.274;26.924;2023-02-15T15:55:25;100164.03;;;6.85;46.89
37856;BME280;23694;43.274;26.924;2023-02-15T15:57:54;100152.31;;;6.72;47.31
37856;BME280;23694;43.274;26.924;2023-02-15T16:02:52;100152.59;;;6.89;47.69
37856;BME280;23694;43.274;26.924;2023-02-15T16:05:18;100156.91;;;6.90;48.79
37856;BME280;23694;43.274;26.924;2023-02-15T16:07:45;100163.47;;;6.76;48.12
37856;BME280;23694;43.274;26.924;2023-02-15T16:10:23;100167.28;;;6.65;48.81
37856;BME280;23694;43.274;26.924;2023-02-15T16:12:50;100165.75;;;6.60;49.20
37856;BME280;23694;43.274;26.924;2023-02-15T16:15:25;100173.13;;;6.46;49.63
37856;BME280;23694;43.274;26.924;2023-02-15T16:17:57;100181.50;;;6.27;50.10
37856;BME280;23694;43.274;26.924;2023-02-15T16:20:27;100184.28;;;6.21;50.24
37856;BME280;23694;43.274;26.924;2023-02-15T16:28:17;100189.75;;;5.83;51.62
37856;BME280;23694;43.274;26.924;2023-02-15T16:30:55;100185.38;;;5.83;52.09
37856;BME280;23694;43.274;26.924;2023-02-15T16:33:38;100183.38;;;5.63;52.21
37856;BME280;23694;43.274;26.924;2023-02-15T16:36:05;100192.31;;;5.53;53.62
37856;BME280;23694;43.274;26.924;2023-02-15T16:41:25;100188.19;;;5.46;53.87
37856;BME280;23694;43.274;26.924;2023-02-15T16:43:54;100191.66;;;5.47;54.07
37856;BME280;23694;43.274;26.924;2023-02-15T16:48:52;100197.22;;;5.33;54.45
37856;BME280;23694;43.274;26.924;2023-02-15T16:51:25;100203.31;;;5.32;55.29
37856;BME280;23694;43.274;26.924;2023-02-15T16:53:54;100204.16;;;5.32;54.87
37856;BME280;23694;43.274;26.924;2023-02-15T16:56:28;100207.66;;;5.31;54.47